createdAt,value
2022-11-16T00:01:12.168Z,3.40
2022-11-16T00:03:40.467Z,4.00
2022-11-16T00:06:09.241Z,3.20
2022-11-16T00:08:38.696Z,4.80
2022-11-16T00:11:09.618Z,6.00
2022-11-16T00:13:38.358Z,5.20
2022-11-16T00:16:07.002Z,4.00
2022-11-16T00:18:35.525Z,4.80
2022-11-16T00:21:05.746Z,6.00
2022-11-16T00:23:36.237Z,6.60
2022-11-16T00:26:06.063Z,6.00
2022-11-16T00:28:36.132Z,6.00
2022-11-16T00:31:07.203Z,6.00
2022-11-16T00:33:35.565Z,6.00
2022-11-16T00:36:04.063Z,7.00
2022-11-16T00:38:32.617Z,6.00
2022-11-16T00:41:01.402Z,6.60
2022-11-16T00:43:29.677Z,7.00
2022-11-16T00:45:59.332Z,6.00
2022-11-16T00:48:27.931Z,7.80
2022-11-16T00:50:56.195Z,9.00
2022-11-16T00:53:24.477Z,6.60
2022-11-16T00:55:53.045Z,6.80
2022-11-16T00:58:21.305Z,6.80
2022-11-16T01:00:49.663Z,6.20
2022-11-16T01:03:19.320Z,3.20
2022-11-16T01:05:47.591Z,9.00
2022-11-16T01:08:15.863Z,6.20
2022-11-16T01:10:44.165Z,6.80
2022-11-16T01:13:11.565Z,7.80
2022-11-16T01:15:39.812Z,4.00
2022-11-16T01:18:08.094Z,6.00
2022-11-16T01:20:37.769Z,9.80
2022-11-16T01:23:06.041Z,7.00
2022-11-16T01:25:34.613Z,9.00
2022-11-16T01:28:02.874Z,6.60
2022-11-16T01:30:32.657Z,7.40
2022-11-16T01:33:01.204Z,6.80
2022-11-16T01:35:29.502Z,4.80
2022-11-16T01:37:59.165Z,6.20
2022-11-16T01:40:28.736Z,9.00
2022-11-16T01:42:57.014Z,8.60
2022-11-16T01:45:36.937Z,4.00
2022-11-16T01:48:05.454Z,4.80
2022-11-16T01:50:34.159Z,6.80
2022-11-16T01:53:05.649Z,8.60
2022-11-16T01:55:34.720Z,6.20
2022-11-16T01:58:03.039Z,3.80
2022-11-16T02:00:31.309Z,9.00
2022-11-16T02:02:59.864Z,7.40
2022-11-16T02:05:31.678Z,7.40
2022-11-16T02:08:25.742Z,6.00
2022-11-16T02:11:04.208Z,3.00
2022-11-16T02:13:39.093Z,6.80
2022-11-16T02:16:13.702Z,7.00
2022-11-16T02:18:45.968Z,7.00
2022-11-16T02:21:21.829Z,8.20
2022-11-16T02:24:16.285Z,6.00
2022-11-16T02:26:57.521Z,6.00
2022-11-16T02:29:29.800Z,7.00
2022-11-16T02:32:01.893Z,6.00
2022-11-16T02:34:32.828Z,6.40
2022-11-16T02:37:01.121Z,5.20
2022-11-16T02:39:29.710Z,6.20
2022-11-16T02:41:57.991Z,6.00
2022-11-16T02:44:29.329Z,4.00
2022-11-16T02:46:59.119Z,3.80
2022-11-16T02:49:27.783Z,4.80
2022-11-16T02:51:56.074Z,6.00
2022-11-16T02:54:25.150Z,5.20
2022-11-16T02:56:55.735Z,3.00
2022-11-16T02:59:24.413Z,5.20
2022-11-16T03:01:56.199Z,4.40
2022-11-16T03:04:26.276Z,5.60
2022-11-16T03:06:54.886Z,4.00
2022-11-16T03:09:24.673Z,2.60
2022-11-16T03:12:00.175Z,4.00
2022-11-16T03:14:30.982Z,1.00
2022-11-16T03:17:00.686Z,0.20
2022-11-16T03:19:36.671Z,3.00
2022-11-16T03:22:07.946Z,3.00
2022-11-16T03:24:36.198Z,2.60
2022-11-16T03:27:07.423Z,3.00
2022-11-16T03:29:37.894Z,1.00
2022-11-16T03:32:11.873Z,3.00
2022-11-16T03:34:40.122Z,3.00
2022-11-16T03:37:08.689Z,3.60
2022-11-16T03:39:39.045Z,3.80
2022-11-16T03:42:08.761Z,4.00
2022-11-16T03:44:37.348Z,3.00
2022-11-16T03:47:05.708Z,3.40
2022-11-16T03:49:35.416Z,3.00
2022-11-16T03:52:04.000Z,3.40
2022-11-16T03:54:32.277Z,4.00
2022-11-16T03:57:00.524Z,4.00
2022-11-16T03:59:28.800Z,3.60
2022-11-16T04:01:57.359Z,3.20
2022-11-16T04:04:39.412Z,2.20
2022-11-16T04:07:23.791Z,4.00
2022-11-16T04:10:05.845Z,3.00
2022-11-16T04:12:48.203Z,4.80
2022-11-16T04:15:30.246Z,4.40
2022-11-16T04:18:12.581Z,3.00
2022-11-16T04:20:54.604Z,4.00
2022-11-16T04:23:38.332Z,5.60
2022-11-16T04:26:45.661Z,3.60
2022-11-16T04:29:13.933Z,3.60
2022-11-16T04:31:56.277Z,3.60
2022-11-16T04:34:38.381Z,3.00
2022-11-16T04:37:20.765Z,4.00
2022-11-16T04:39:52.698Z,1.00
2022-11-16T04:42:22.528Z,2.20
2022-11-16T04:45:04.860Z,3.20
2022-11-16T04:47:33.136Z,3.00
2022-11-16T04:50:01.404Z,5.20
2022-11-16T04:52:29.957Z,3.00
2022-11-16T04:54:59.621Z,1.00
2022-11-16T04:57:27.866Z,1.00
2022-11-16T04:59:56.405Z,3.80
2022-11-16T05:02:24.677Z,3.00
2022-11-16T05:04:52.974Z,1.80
2022-11-16T05:07:21.353Z,3.00
2022-11-16T05:09:50.120Z,3.00
2022-11-16T05:12:21.134Z,2.20
2022-11-16T05:14:49.393Z,3.00
2022-11-16T05:17:17.694Z,3.20
2022-11-16T05:20:00.113Z,1.40
2022-11-16T05:22:28.419Z,3.00
2022-11-16T05:24:56.767Z,3.00
2022-11-16T05:27:28.673Z,1.80
2022-11-16T05:29:58.571Z,1.00
2022-11-16T05:32:27.506Z,2.60
2022-11-16T05:35:08.691Z,1.00
2022-11-16T05:37:37.041Z,1.00
2022-11-16T05:40:14.288Z,1.00
2022-11-16T05:42:44.115Z,2.20
2022-11-16T05:45:21.153Z,1.00
2022-11-16T05:47:50.947Z,0.60
2022-11-16T05:50:21.586Z,1.40
2022-11-16T05:52:51.966Z,1.00
2022-11-16T05:55:20.635Z,0.00
2022-11-16T05:57:50.289Z,1.00
2022-11-16T06:00:19.194Z,0.00
2022-11-16T06:02:47.779Z,0.00
2022-11-16T06:05:16.165Z,0.00
2022-11-16T06:07:44.462Z,0.00
2022-11-16T06:10:12.798Z,0.00
2022-11-16T06:12:41.038Z,0.00
2022-11-16T06:15:11.033Z,0.00
2022-11-16T06:17:39.288Z,0.00
2022-11-16T06:20:08.385Z,0.00
2022-11-16T06:22:36.644Z,0.00
2022-11-16T06:25:05.253Z,0.00
2022-11-16T06:27:33.593Z,0.00
2022-11-16T06:30:02.223Z,0.00
2022-11-16T06:32:31.888Z,0.00
2022-11-16T06:35:00.157Z,0.00
2022-11-16T06:37:28.459Z,0.00
2022-11-16T06:39:57.015Z,0.00
2022-11-16T06:42:25.323Z,0.00
2022-11-16T06:44:53.605Z,0.00
2022-11-16T06:47:21.898Z,0.00
2022-11-16T06:49:51.563Z,0.00
2022-11-16T06:52:19.838Z,0.00
2022-11-16T06:54:48.130Z,0.00
2022-11-16T06:57:16.387Z,0.00
2022-11-16T06:59:44.665Z,0.80
2022-11-16T07:02:12.947Z,1.00
2022-11-16T07:04:41.283Z,0.00
2022-11-16T07:07:10.996Z,0.00
2022-11-16T07:09:39.590Z,0.40
2022-11-16T07:12:08.199Z,0.00
2022-11-16T07:14:36.493Z,0.00
2022-11-16T07:17:09.303Z,0.00
2022-11-16T07:19:38.287Z,0.60
2022-11-16T07:24:53.634Z,1.40
2022-11-16T07:27:22.005Z,0.00
2022-11-16T07:29:50.272Z,1.00
2022-11-16T07:32:18.561Z,1.00
2022-11-16T07:34:47.098Z,1.00
2022-11-16T07:37:15.393Z,0.60
2022-11-16T07:39:43.828Z,3.00
2022-11-16T07:42:13.554Z,3.00
2022-11-16T07:44:42.260Z,3.40
2022-11-16T07:47:10.576Z,1.00
2022-11-16T07:49:38.904Z,1.00
2022-11-16T07:52:09.253Z,1.80
2022-11-16T07:54:37.585Z,1.00
2022-11-16T07:57:05.892Z,3.00
2022-11-16T07:59:36.592Z,1.00
2022-11-16T08:02:04.964Z,4.00
2022-11-16T08:04:33.333Z,1.00
2022-11-16T08:07:01.659Z,4.00
2022-11-16T08:09:32.850Z,4.00
2022-11-16T08:12:01.587Z,3.00
2022-11-16T08:14:32.079Z,1.00
2022-11-16T08:17:04.982Z,4.20
2022-11-16T08:19:34.083Z,6.00
2022-11-16T08:22:02.409Z,9.20
2022-11-16T08:24:31.022Z,7.40
2022-11-16T08:26:59.680Z,12.60
2022-11-16T08:29:28.439Z,4.00
2022-11-16T08:31:57.015Z,1.80
2022-11-16T08:34:26.973Z,6.00
2022-11-16T08:36:55.261Z,10.20
2022-11-16T08:39:23.578Z,2.80
2022-11-16T08:41:52.333Z,4.00
2022-11-16T08:44:20.651Z,2.00
2022-11-16T08:46:48.927Z,1.40
2022-11-16T08:49:17.262Z,3.80
2022-11-16T08:51:46.973Z,4.00
2022-11-16T08:54:16.303Z,3.40
2022-11-16T08:56:44.802Z,4.60
2022-11-16T08:59:13.903Z,7.80
2022-11-16T09:01:42.384Z,3.80
2022-11-16T09:04:10.747Z,3.40
2022-11-16T09:06:39.059Z,2.80
2022-11-16T09:09:08.715Z,4.60
2022-11-16T09:11:37.042Z,3.20
2022-11-16T09:14:05.341Z,2.40
2022-11-16T09:16:34.269Z,6.40
2022-11-16T09:19:02.828Z,2.40
2022-11-16T09:21:31.534Z,6.60
2022-11-16T09:24:00.158Z,7.20
2022-11-16T09:26:30.235Z,4.00
2022-11-16T09:28:59.646Z,3.80
2022-11-16T09:31:28.483Z,4.00
2022-11-16T09:33:58.677Z,4.00
2022-11-16T09:36:27.432Z,3.80
2022-11-16T09:41:52.014Z,0.40
2022-11-16T09:44:31.216Z,0.00
2022-11-16T09:47:00.338Z,0.00
2022-11-16T09:49:31.486Z,0.00
2022-11-16T09:52:02.021Z,0.00
2022-11-16T09:54:34.423Z,0.00
2022-11-16T09:57:12.647Z,0.00
2022-11-16T09:59:42.721Z,0.00
2022-11-16T10:02:18.625Z,0.00
2022-11-16T10:04:55.034Z,0.00
2022-11-16T10:07:27.572Z,0.00
2022-11-16T10:09:56.480Z,0.00
2022-11-16T10:12:28.553Z,0.00
2022-11-16T10:15:08.575Z,0.00
2022-11-16T10:17:45.423Z,0.00
2022-11-16T10:20:30.250Z,0.00
2022-11-16T10:23:02.107Z,0.80
2022-11-16T10:25:32.204Z,0.00
2022-11-16T10:28:16.185Z,1.00
2022-11-16T10:30:48.044Z,0.00
2022-11-16T10:33:17.400Z,5.60
2022-11-16T10:35:47.098Z,0.00
2022-11-16T10:38:17.286Z,0.00
2022-11-16T10:40:46.420Z,0.00
2022-11-16T10:43:17.062Z,0.00
2022-11-16T10:45:47.092Z,0.00
2022-11-16T10:48:23.520Z,0.00
2022-11-16T10:50:52.343Z,0.00
2022-11-16T10:53:27.927Z,0.00
2022-11-16T10:56:14.592Z,0.00
2022-11-16T10:58:54.787Z,0.80
2022-11-16T11:01:32.231Z,0.20
2022-11-16T11:04:15.011Z,0.00
2022-11-16T11:06:51.919Z,0.00
2022-11-16T11:09:25.986Z,0.40
2022-11-16T11:12:14.325Z,1.00
2022-11-16T11:14:44.000Z,0.40
2022-11-16T11:17:14.392Z,0.00
2022-11-16T11:19:42.673Z,1.00
2022-11-16T11:22:11.759Z,0.00
2022-11-16T11:24:47.620Z,0.00
2022-11-16T11:27:15.972Z,0.00
2022-11-16T11:29:46.012Z,0.00
2022-11-16T11:32:20.777Z,1.00
2022-11-16T11:34:53.386Z,0.00
2022-11-16T11:37:23.470Z,0.00
2022-11-16T11:39:56.884Z,0.00
2022-11-16T11:42:25.202Z,0.00
2022-11-16T11:44:58.105Z,0.20
2022-11-16T11:50:21.291Z,0.00
2022-11-16T11:53:00.740Z,0.00
2022-11-16T11:55:30.130Z,0.00
2022-11-16T11:57:58.516Z,0.40
2022-11-16T12:00:28.747Z,0.00
2022-11-16T12:03:12.300Z,0.00
2022-11-16T12:05:56.054Z,0.00
2022-11-16T12:08:46.917Z,0.00
2022-11-16T12:11:18.123Z,0.20
2022-11-16T12:13:58.045Z,0.00
2022-11-16T12:16:30.301Z,0.00
2022-11-16T12:19:11.628Z,0.00
2022-11-16T12:21:45.531Z,0.00
2022-11-16T12:24:22.648Z,0.80
2022-11-16T12:26:56.074Z,0.00
2022-11-16T12:29:27.101Z,0.00
2022-11-16T12:32:06.438Z,0.20
2022-11-16T12:34:42.088Z,0.00
2022-11-16T12:37:13.459Z,0.00
2022-11-16T12:40:33.342Z,0.00
2022-11-16T12:43:04.070Z,0.00
2022-11-16T12:45:42.756Z,0.00
2022-11-16T12:51:05.130Z,0.40
2022-11-16T12:53:46.529Z,0.00
2022-11-16T12:56:19.254Z,0.40
2022-11-16T12:58:57.726Z,1.00
2022-11-16T13:01:28.572Z,0.00
2022-11-16T13:03:57.825Z,0.00
2022-11-16T13:06:29.847Z,0.00
2022-11-16T13:09:02.020Z,0.00
2022-11-16T13:11:32.163Z,0.60
2022-11-16T13:14:02.173Z,0.00
2022-11-16T13:16:30.573Z,0.60
2022-11-16T13:18:58.902Z,0.00
2022-11-16T13:21:32.998Z,1.00
2022-11-16T13:24:07.968Z,0.00
2022-11-16T13:26:40.128Z,0.00
2022-11-16T13:29:13.517Z,0.00
2022-11-16T13:31:45.183Z,0.00
2022-11-16T13:34:15.881Z,0.00
2022-11-16T13:36:46.667Z,0.00
2022-11-16T13:39:21.855Z,1.00
2022-11-16T13:41:51.022Z,0.00
2022-11-16T13:44:26.370Z,0.80
2022-11-16T13:46:56.911Z,0.60
2022-11-16T13:49:27.643Z,0.60
2022-11-16T13:52:11.365Z,0.00
2022-11-16T13:54:49.161Z,0.20
2022-11-16T13:57:23.105Z,0.00
2022-11-16T14:00:09.288Z,1.00
2022-11-16T14:02:38.038Z,0.20
2022-11-16T14:05:06.825Z,0.00
2022-11-16T14:07:40.815Z,1.00
2022-11-16T14:10:09.455Z,0.00
2022-11-16T14:12:52.950Z,1.00
2022-11-16T14:15:22.193Z,0.00
2022-11-16T14:17:52.045Z,0.00
2022-11-16T14:20:29.179Z,1.00
2022-11-16T14:23:04.716Z,1.00
2022-11-16T14:25:39.919Z,0.20
2022-11-16T14:28:14.906Z,1.00
2022-11-16T14:30:55.299Z,0.00
2022-11-16T14:33:30.525Z,1.00
2022-11-16T14:35:59.108Z,0.20
2022-11-16T14:38:32.258Z,1.00
2022-11-16T14:41:08.756Z,0.00
2022-11-16T14:43:40.892Z,0.00
2022-11-16T14:46:09.949Z,0.00
2022-11-16T14:48:44.728Z,0.00
2022-11-16T14:51:15.102Z,0.00
2022-11-16T14:53:47.164Z,1.00
2022-11-16T14:56:16.542Z,0.20
2022-11-16T14:58:52.446Z,1.80
2022-11-16T15:01:21.323Z,1.00
2022-11-16T15:03:54.818Z,2.60
2022-11-16T15:06:23.819Z,0.00
2022-11-16T15:08:55.402Z,1.00
2022-11-16T15:11:49.571Z,1.00
2022-11-16T15:14:22.737Z,0.00
2022-11-16T15:16:53.095Z,0.00
2022-11-16T15:19:22.260Z,0.00
2022-11-16T15:21:53.858Z,0.40
2022-11-16T15:24:31.314Z,0.00
2022-11-16T15:27:04.338Z,0.00
2022-11-16T15:29:32.984Z,0.40
2022-11-16T15:32:02.029Z,0.00
2022-11-16T15:34:30.880Z,0.00
2022-11-16T15:36:59.302Z,0.00
2022-11-16T15:39:30.189Z,6.00
2022-11-16T15:42:03.757Z,3.00
2022-11-16T15:44:33.209Z,0.00
2022-11-16T15:47:02.027Z,1.00
2022-11-16T15:49:31.268Z,0.20
2022-11-16T15:52:00.086Z,0.40
2022-11-16T15:54:30.761Z,1.00
2022-11-16T15:57:17.536Z,1.00
2022-11-16T15:59:48.636Z,0.40
2022-11-16T16:02:19.074Z,1.00
2022-11-16T16:04:47.583Z,1.00
2022-11-16T16:07:40.907Z,1.00
2022-11-16T16:10:24.263Z,1.00
2022-11-16T16:12:52.880Z,0.00
2022-11-16T16:15:23.015Z,0.00
2022-11-16T16:17:51.506Z,0.00
2022-11-16T16:20:21.151Z,0.00
2022-11-16T16:22:49.724Z,1.00
2022-11-16T16:25:31.217Z,0.00
2022-11-16T16:28:00.150Z,0.00
2022-11-16T16:30:29.143Z,0.00
2022-11-16T16:32:57.661Z,0.00
2022-11-16T16:35:26.592Z,0.60
2022-11-16T16:37:58.873Z,0.00
2022-11-16T16:40:27.662Z,0.80
2022-11-16T16:42:58.610Z,0.00
2022-11-16T16:45:32.398Z,0.00
2022-11-16T16:48:01.010Z,0.00
2022-11-16T16:50:29.318Z,0.00
2022-11-16T16:52:58.107Z,0.80
2022-11-16T16:55:26.800Z,0.00
2022-11-16T16:57:57.624Z,0.00
2022-11-16T17:00:27.764Z,0.40
2022-11-16T17:02:56.673Z,0.20
2022-11-16T17:05:24.987Z,1.00
2022-11-16T17:07:55.586Z,0.00
2022-11-16T17:10:24.039Z,0.80
2022-11-16T17:12:54.904Z,0.00
2022-11-16T17:15:23.410Z,0.00
2022-11-16T17:17:53.479Z,0.00
2022-11-16T17:20:22.043Z,1.00
2022-11-16T17:22:50.806Z,0.00
2022-11-16T17:25:20.930Z,0.60
2022-11-16T17:27:50.291Z,1.80
2022-11-16T17:30:18.895Z,3.00
2022-11-16T17:32:47.292Z,1.40
2022-11-16T17:35:17.342Z,3.00
2022-11-16T17:37:45.782Z,1.80
2022-11-16T17:40:15.280Z,1.80
2022-11-16T17:42:44.336Z,1.00
2022-11-16T17:45:12.906Z,1.00
2022-11-16T17:47:42.143Z,1.00
2022-11-16T17:50:11.318Z,1.00
2022-11-16T17:52:41.658Z,1.00
2022-11-16T17:55:10.416Z,0.40
2022-11-16T17:57:38.750Z,1.00
2022-11-16T18:00:08.169Z,0.00
2022-11-16T18:02:36.433Z,1.00
2022-11-16T18:05:04.804Z,0.00
2022-11-16T18:07:33.701Z,1.00
2022-11-16T18:10:03.747Z,1.40
2022-11-16T18:12:32.069Z,1.00
2022-11-16T18:15:26.987Z,1.40
2022-11-16T18:17:48.875Z,0.00
2022-11-16T18:20:17.213Z,1.00
2022-11-16T18:22:45.497Z,1.00
2022-11-16T18:25:15.446Z,1.00
2022-11-16T18:27:43.777Z,6.80
2022-11-16T18:30:12.614Z,0.80
2022-11-16T18:32:41.125Z,2.20
2022-11-16T18:35:10.137Z,1.00
2022-11-16T18:37:39.227Z,1.00
2022-11-16T18:40:08.932Z,2.20
2022-11-16T18:42:38.636Z,3.00
2022-11-16T18:45:08.164Z,1.00
2022-11-16T18:47:36.445Z,1.40
2022-11-16T18:50:06.412Z,1.00
2022-11-16T18:52:34.973Z,1.00
2022-11-16T18:55:03.552Z,3.00
2022-11-16T18:57:31.961Z,1.00
2022-11-16T19:00:01.657Z,3.00
2022-11-16T19:02:30.026Z,1.40
2022-11-16T19:04:58.345Z,1.00
2022-11-16T19:07:26.676Z,2.60
2022-11-16T19:09:55.229Z,1.80
2022-11-16T19:12:23.545Z,3.00
2022-11-16T19:14:51.817Z,1.80
2022-11-16T19:17:24.666Z,3.00
2022-11-16T19:19:53.245Z,1.80
2022-11-16T19:22:21.526Z,0.00
2022-11-16T19:24:49.820Z,1.00
2022-11-16T19:27:18.183Z,0.00
2022-11-16T19:29:46.583Z,0.20
2022-11-16T19:32:15.460Z,1.50
2022-11-16T19:34:45.421Z,1.00
2022-11-16T19:37:14.147Z,3.00
2022-11-16T19:39:42.517Z,3.00
2022-11-16T19:42:11.126Z,1.00
2022-11-16T19:44:39.415Z,1.00
2022-11-16T19:47:17.716Z,1.80
2022-11-16T19:49:59.987Z,0.00
2022-11-16T19:53:02.842Z,3.00
2022-11-16T19:55:38.558Z,1.00
2022-11-16T19:58:33.243Z,2.60
2022-11-16T20:01:31.663Z,3.80
2022-11-16T20:04:10.172Z,1.80
2022-11-16T20:06:57.649Z,3.00
2022-11-16T20:10:30.723Z,2.20
2022-11-16T20:13:28.468Z,1.00
2022-11-16T20:15:59.721Z,3.00
2022-11-16T20:18:31.571Z,1.80
2022-11-16T20:21:05.444Z,1.00
2022-11-16T20:23:45.619Z,1.00
2022-11-16T20:26:16.630Z,1.00
2022-11-16T20:28:46.658Z,1.00
2022-11-16T20:31:20.057Z,1.00
2022-11-16T20:33:55.062Z,1.40
2022-11-16T20:36:27.976Z,0.80
2022-11-16T20:39:00.183Z,3.00
2022-11-16T20:41:34.283Z,0.00
2022-11-16T20:44:09.535Z,1.00
2022-11-16T20:47:00.209Z,3.00
2022-11-16T20:49:34.707Z,1.00
2022-11-16T20:52:08.252Z,1.00
2022-11-16T20:54:42.189Z,4.00
2022-11-16T20:57:15.248Z,4.00
2022-11-16T20:59:59.165Z,7.00
2022-11-16T21:02:30.641Z,3.40
2022-11-16T21:05:02.476Z,10.60
2022-11-16T21:07:35.574Z,6.40
2022-11-16T21:10:21.269Z,7.40
2022-11-16T21:13:06.656Z,6.00
2022-11-16T21:15:40.845Z,9.60
2022-11-16T21:18:13.781Z,8.60
2022-11-16T21:20:43.665Z,9.80
2022-11-16T21:23:18.384Z,8.80
2022-11-16T21:25:52.589Z,7.20
2022-11-16T21:28:25.726Z,7.80
2022-11-16T21:31:02.753Z,7.80
2022-11-16T21:33:38.253Z,8.60
2022-11-16T21:36:11.963Z,9.60
2022-11-16T21:38:42.901Z,10.00
2022-11-16T21:41:20.496Z,10.20
2022-11-16T21:43:52.091Z,7.40
2022-11-16T21:46:24.938Z,9.40
2022-11-16T21:49:00.827Z,7.60
2022-11-16T21:51:35.246Z,8.20
2022-11-16T21:54:14.353Z,10.40
2022-11-16T21:56:50.617Z,12.80
2022-11-16T22:02:12.393Z,18.00
2022-11-16T22:04:58.680Z,18.40
2022-11-16T22:07:36.913Z,19.40
2022-11-16T22:10:18.171Z,23.40
2022-11-16T22:12:58.932Z,18.60
2022-11-16T22:15:29.663Z,19.00
2022-11-16T22:18:05.363Z,16.60
2022-11-16T22:20:38.084Z,19.00
2022-11-16T22:23:07.955Z,15.80
2022-11-16T22:25:46.193Z,18.00
2022-11-16T22:28:21.034Z,19.00
2022-11-16T22:31:00.109Z,17.60
2022-11-16T22:33:31.485Z,18.80
2022-11-16T22:36:08.435Z,20.40
2022-11-16T22:38:42.952Z,17.60
2022-11-16T22:41:13.845Z,25.00
2022-11-16T22:43:52.839Z,26.40
2022-11-16T22:46:28.172Z,17.80
2022-11-16T22:49:00.037Z,19.60
2022-11-16T22:51:32.262Z,20.80
2022-11-16T22:54:15.780Z,17.40
2022-11-16T22:57:01.464Z,17.00
2022-11-16T22:59:35.146Z,15.20
2022-11-16T23:02:21.072Z,13.00
2022-11-16T23:04:50.286Z,11.20
2022-11-16T23:07:24.322Z,9.60
2022-11-16T23:09:58.744Z,9.00
2022-11-16T23:12:45.668Z,6.60
2022-11-16T23:15:31.536Z,4.00
2022-11-16T23:18:13.488Z,3.20
2022-11-16T23:21:00.560Z,7.40
2022-11-16T23:23:46.243Z,6.40
2022-11-16T23:26:32.514Z,6.40
2022-11-16T23:29:09.294Z,6.00
2022-11-16T23:31:42.326Z,5.20
2022-11-16T23:34:14.457Z,4.40
2022-11-16T23:36:52.174Z,3.60
2022-11-16T23:39:28.783Z,1.80
2022-11-16T23:42:13.177Z,1.80
2022-11-16T23:44:44.470Z,0.00
2022-11-16T23:47:18.040Z,1.80
2022-11-16T23:49:56.065Z,0.20
2022-11-16T23:52:31.981Z,0.00
2022-11-16T23:55:06.832Z,0.40
2022-11-16T23:57:37.057Z,0.00
